sensor_id;sensor_type;location;lat;lon;timestamp;P1;durP1;ratioP1;P2;durP2;ratioP2
23252;SDS011;11795;47.054;15.408;2023-04-01T00:00:00;3.2;;;2.9;;
23252;SDS011;11795;47.054;15.408;2023-04-01T00:02:00;3.8;;;2.8;;
23252;SDS011;11795;47.054;15.408;2023-04-01T00:04:02;3.8;;;2.8;;
23252;SDS011;11795;47.054;15.408;2023-04-01T00:06:00;3.0;;;2.7;;
23252;SDS011;11795;47.054;15.408;2023-04-01T00:08:00;3.0;;;2.7;;
23252;SDS011;11795;47.054;15.408;2023-04-01T00:10:00;3.0;;;2.7;;
23252;SDS011;11795;47.054;15.408;2023-04-01T00:12:00;2.9;;;2.6;;
23252;SDS011;11795;47.054;15.408;2023-04-01T00:14:00;2.9;;;2.6;;
23252;SDS011;11795;47.054;15.408;2023-04-01T00:16:01;3.4;;;2.6;;
23252;SDS011;11795;47.054;15.408;2023-04-01T00:18:01;3.4;;;2.6;;
23252;SDS011;11795;47.054;15.408;2023-04-01T00:20:01;3.4;;;2.6;;
23252;SDS011;11795;47.054;15.408;2023-04-01T00:22:00;3.1;;;2.7;;
23252;SDS011;11795;47.054;15.408;2023-04-01T00:24:00;3.1;;;2.7;;
23252;SDS011;11795;47.054;15.408;2023-04-01T00:26:01;2.4;;;2.2;;
23252;SDS011;11795;47.054;15.408;2023-04-01T00:28:00;2.4;;;2.2;;
23252;SDS011;11795;47.054;15.408;2023-04-01T00:30:01;2.4;;;2.2;;
23252;SDS011;11795;47.054;15.408;2023-04-01T00:32:00;3.0;;;2.6;;
23252;SDS011;11795;47.054;15.408;2023-04-01T00:34:00;3.0;;;2.6;;
23252;SDS011;11795;47.054;15.408;2023-04-01T00:36:09;4.9;;;3.2;;
23252;SDS011;11795;47.054;15.408;2023-04-01T00:38:00;4.9;;;3.2;;
23252;SDS011;11795;47.054;15.408;2023-04-01T00:40:00;4.9;;;3.2;;
23252;SDS011;11795;47.054;15.408;2023-04-01T00:42:01;3.9;;;3.4;;
23252;SDS011;11795;47.054;15.408;2023-04-01T00:46:00;3.9;;;3.5;;
23252;SDS011;11795;47.054;15.408;2023-04-01T00:48:02;3.9;;;3.5;;
23252;SDS011;11795;47.054;15.408;2023-04-01T00:50:00;3.9;;;3.5;;
23252;SDS011;11795;47.054;15.408;2023-04-01T00:52:01;3.9;;;2.9;;
23252;SDS011;11795;47.054;15.408;2023-04-01T00:54:02;3.9;;;2.9;;
23252;SDS011;11795;47.054;15.408;2023-04-01T00:56:01;3.5;;;3.1;;
23252;SDS011;11795;47.054;15.408;2023-04-01T00:58:00;3.5;;;3.1;;
23252;SDS011;11795;47.054;15.408;2023-04-01T01:00:00;3.5;;;3.1;;
23252;SDS011;11795;47.054;15.408;2023-04-01T01:02:00;3.9;;;3.2;;
23252;SDS011;11795;47.054;15.408;2023-04-01T01:04:02;3.9;;;3.2;;
23252;SDS011;11795;47.054;15.408;2023-04-01T01:06:06;3.7;;;3.0;;
23252;SDS011;11795;47.054;15.408;2023-04-01T01:08:01;3.7;;;3.0;;
23252;SDS011;11795;47.054;15.408;2023-04-01T01:10:02;3.7;;;3.0;;
23252;SDS011;11795;47.054;15.408;2023-04-01T01:12:02;3.8;;;3.0;;
23252;SDS011;11795;47.054;15.408;2023-04-01T01:14:01;3.8;;;3.0;;
23252;SDS011;11795;47.054;15.408;2023-04-01T01:16:01;4.4;;;3.3;;
23252;SDS011;11795;47.054;15.408;2023-04-01T01:18:02;4.4;;;3.3;;
23252;SDS011;11795;47.054;15.408;2023-04-01T01:22:05;3.9;;;3.5;;
23252;SDS011;11795;47.054;15.408;2023-04-01T01:24:08;3.9;;;3.5;;
23252;SDS011;11795;47.054;15.408;2023-04-01T01:26:07;3.7;;;3.1;;
23252;SDS011;11795;47.054;15.408;2023-04-01T01:28:04;3.7;;;3.1;;
23252;SDS011;11795;47.054;15.408;2023-04-01T01:32:03;3.4;;;2.9;;
23252;SDS011;11795;47.054;15.408;2023-04-01T01:34:03;3.4;;;2.9;;
23252;SDS011;11795;47.054;15.408;2023-04-01T01:36:01;3.5;;;3.1;;
23252;SDS011;11795;47.054;15.408;2023-04-01T01:38:01;3.5;;;3.1;;
23252;SDS011;11795;47.054;15.408;2023-04-01T01:40:01;3.5;;;3.1;;
23252;SDS011;11795;47.054;15.408;2023-04-01T01:42:01;4.4;;;3.9;;
23252;SDS011;11795;47.054;15.408;2023-04-01T01:44:00;4.4;;;3.9;;
23252;SDS011;11795;47.054;15.408;2023-04-01T01:46:01;4.4;;;3.9;;
23252;SDS011;11795;47.054;15.408;2023-04-01T01:48:01;4.3;;;3.9;;
23252;SDS011;11795;47.054;15.408;2023-04-01T01:50:01;4.3;;;3.9;;
23252;SDS011;11795;47.054;15.408;2023-04-01T01:52:00;4.2;;;3.8;;
23252;SDS011;11795;47.054;15.408;2023-04-01T01:54:00;4.2;;;3.8;;
23252;SDS011;11795;47.054;15.408;2023-04-01T01:56:00;4.2;;;3.8;;
23252;SDS011;11795;47.054;15.408;2023-04-01T01:58:01;3.9;;;3.6;;
23252;SDS011;11795;47.054;15.408;2023-04-01T02:00:01;3.9;;;3.6;;
23252;SDS011;11795;47.054;15.408;2023-04-01T02:02:00;4.0;;;3.6;;
23252;SDS011;11795;47.054;15.408;2023-04-01T02:04:00;4.0;;;3.6;;
23252;SDS011;11795;47.054;15.408;2023-04-01T02:06:01;4.0;;;3.6;;
23252;SDS011;11795;47.054;15.408;2023-04-01T02:08:01;3.7;;;3.4;;
23252;SDS011;11795;47.054;15.408;2023-04-01T02:10:00;3.7;;;3.4;;
23252;SDS011;11795;47.054;15.408;2023-04-01T02:12:00;3.6;;;3.3;;
23252;SDS011;11795;47.054;15.408;2023-04-01T02:14:02;3.6;;;3.3;;
23252;SDS011;11795;47.054;15.408;2023-04-01T02:16:02;3.6;;;3.3;;
23252;SDS011;11795;47.054;15.408;2023-04-01T02:18:00;3.8;;;3.4;;
23252;SDS011;11795;47.054;15.408;2023-04-01T02:20:01;3.8;;;3.4;;
23252;SDS011;11795;47.054;15.408;2023-04-01T02:22:01;4.9;;;3.4;;
23252;SDS011;11795;47.054;15.408;2023-04-01T02:24:01;4.9;;;3.4;;
23252;SDS011;11795;47.054;15.408;2023-04-01T02:26:00;4.9;;;3.4;;
23252;SDS011;11795;47.054;15.408;2023-04-01T02:28:00;4.0;;;3.6;;
23252;SDS011;11795;47.054;15.408;2023-04-01T02:30:00;4.0;;;3.6;;
23252;SDS011;11795;47.054;15.408;2023-04-01T02:32:00;4.6;;;3.8;;
23252;SDS011;11795;47.054;15.408;2023-04-01T02:34:00;4.6;;;3.8;;
23252;SDS011;11795;47.054;15.408;2023-04-01T02:36:00;4.6;;;3.8;;
23252;SDS011;11795;47.054;15.408;2023-04-01T02:38:00;3.7;;;3.1;;
23252;SDS011;11795;47.054;15.408;2023-04-01T02:40:00;3.7;;;3.1;;
23252;SDS011;11795;47.054;15.408;2023-04-01T02:42:00;3.7;;;3.3;;
23252;SDS011;11795;47.054;15.408;2023-04-01T02:44:00;3.7;;;3.3;;
23252;SDS011;11795;47.054;15.408;2023-04-01T02:46:01;3.7;;;3.3;;
23252;SDS011;11795;47.054;15.408;2023-04-01T02:48:00;5.1;;;3.4;;
23252;SDS011;11795;47.054;15.408;2023-04-01T02:50:00;5.1;;;3.4;;
23252;SDS011;11795;47.054;15.408;2023-04-01T02:52:00;3.5;;;3.1;;
23252;SDS011;11795;47.054;15.408;2023-04-01T02:54:00;3.5;;;3.1;;
23252;SDS011;11795;47.054;15.408;2023-04-01T02:56:00;3.5;;;3.1;;
23252;SDS011;11795;47.054;15.408;2023-04-01T02:58:00;3.9;;;3.1;;
23252;SDS011;11795;47.054;15.408;2023-04-01T03:00:00;3.9;;;3.1;;
23252;SDS011;11795;47.054;15.408;2023-04-01T03:02:00;4.1;;;3.7;;
23252;SDS011;11795;47.054;15.408;2023-04-01T03:04:00;4.1;;;3.7;;
23252;SDS011;11795;47.054;15.408;2023-04-01T03:06:04;4.1;;;3.7;;
23252;SDS011;11795;47.054;15.408;2023-04-01T03:08:00;5.6;;;4.4;;
23252;SDS011;11795;47.054;15.408;2023-04-01T03:10:00;5.6;;;4.4;;
23252;SDS011;11795;47.054;15.408;2023-04-01T03:12:00;5.4;;;4.0;;
23252;SDS011;11795;47.054;15.408;2023-04-01T03:14:00;5.4;;;4.0;;
23252;SDS011;11795;47.054;15.408;2023-04-01T03:16:00;5.4;;;4.0;;
23252;SDS011;11795;47.054;15.408;2023-04-01T03:18:00;6.4;;;4.7;;
23252;SDS011;11795;47.054;15.408;2023-04-01T03:20:00;6.4;;;4.7;;
23252;SDS011;11795;47.054;15.408;2023-04-01T03:22:00;5.2;;;4.3;;
23252;SDS011;11795;47.054;15.408;2023-04-01T03:24:00;5.2;;;4.3;;
23252;SDS011;11795;47.054;15.408;2023-04-01T03:26:00;5.2;;;4.3;;
23252;SDS011;11795;47.054;15.408;2023-04-01T03:28:01;4.8;;;3.8;;
23252;SDS011;11795;47.054;15.408;2023-04-01T03:30:00;4.8;;;3.8;;
23252;SDS011;11795;47.054;15.408;2023-04-01T03:32:00;4.6;;;4.1;;
23252;SDS011;11795;47.054;15.408;2023-04-01T03:34:00;4.6;;;4.1;;
23252;SDS011;11795;47.054;15.408;2023-04-01T03:36:00;4.6;;;4.1;;
23252;SDS011;11795;47.054;15.408;2023-04-01T03:38:00;4.5;;;4.1;;
23252;SDS011;11795;47.054;15.408;2023-04-01T03:40:00;4.5;;;4.1;;
23252;SDS011;11795;47.054;15.408;2023-04-01T03:42:00;4.4;;;3.7;;
23252;SDS011;11795;47.054;15.408;2023-04-01T03:44:00;4.4;;;3.7;;
23252;SDS011;11795;47.054;15.408;2023-04-01T03:46:00;4.4;;;3.7;;
23252;SDS011;11795;47.054;15.408;2023-04-01T03:48:00;4.3;;;3.9;;
23252;SDS011;11795;47.054;15.408;2023-04-01T03:50:00;4.3;;;3.9;;
23252;SDS011;11795;47.054;15.408;2023-04-01T03:52:00;4.7;;;3.9;;
23252;SDS011;11795;47.054;15.408;2023-04-01T03:54:00;4.7;;;3.9;;
23252;SDS011;11795;47.054;15.408;2023-04-01T03:56:02;4.7;;;3.9;;
23252;SDS011;11795;47.054;15.408;2023-04-01T03:58:02;6.3;;;4.9;;
23252;SDS011;11795;47.054;15.408;2023-04-01T04:00:00;6.3;;;4.9;;
23252;SDS011;11795;47.054;15.408;2023-04-01T04:02:00;6.0;;;4.9;;
23252;SDS011;11795;47.054;15.408;2023-04-01T04:04:00;6.0;;;4.9;;
23252;SDS011;11795;47.054;15.408;2023-04-01T04:06:00;6.0;;;4.9;;
23252;SDS011;11795;47.054;15.408;2023-04-01T04:08:00;5.2;;;4.7;;
23252;SDS011;11795;47.054;15.408;2023-04-01T04:10:00;5.2;;;4.7;;
23252;SDS011;11795;47.054;15.408;2023-04-01T04:12:00;5.1;;;4.5;;
23252;SDS011;11795;47.054;15.408;2023-04-01T04:14:01;5.1;;;4.5;;
23252;SDS011;11795;47.054;15.408;2023-04-01T04:16:00;5.1;;;4.5;;
23252;SDS011;11795;47.054;15.408;2023-04-01T04:18:00;5.7;;;4.4;;
23252;SDS011;11795;47.054;15.408;2023-04-01T04:20:00;5.7;;;4.4;;
23252;SDS011;11795;47.054;15.408;2023-04-01T04:22:01;4.6;;;4.1;;
23252;SDS011;11795;47.054;15.408;2023-04-01T04:24:01;4.6;;;4.1;;
23252;SDS011;11795;47.054;15.408;2023-04-01T04:26:01;4.6;;;4.1;;
23252;SDS011;11795;47.054;15.408;2023-04-01T04:28:00;5.5;;;4.6;;
23252;SDS011;11795;47.054;15.408;2023-04-01T04:30:00;5.5;;;4.6;;
23252;SDS011;11795;47.054;15.408;2023-04-01T04:32:00;5.0;;;4.1;;
23252;SDS011;11795;47.054;15.408;2023-04-01T04:34:00;5.0;;;4.1;;
23252;SDS011;11795;47.054;15.408;2023-04-01T04:36:00;5.0;;;4.1;;
23252;SDS011;11795;47.054;15.408;2023-04-01T04:38:00;4.5;;;3.8;;
23252;SDS011;11795;47.054;15.408;2023-04-01T04:40:00;4.5;;;3.8;;
23252;SDS011;11795;47.054;15.408;2023-04-01T04:42:00;4.7;;;4.0;;
23252;SDS011;11795;47.054;15.408;2023-04-01T04:44:00;4.7;;;4.0;;
23252;SDS011;11795;47.054;15.408;2023-04-01T04:46:03;4.7;;;4.0;;
23252;SDS011;11795;47.054;15.408;2023-04-01T04:48:00;4.9;;;4.0;;
23252;SDS011;11795;47.054;15.408;2023-04-01T04:50:00;4.9;;;4.0;;
23252;SDS011;11795;47.054;15.408;2023-04-01T04:52:00;5.1;;;3.7;;
23252;SDS011;11795;47.054;15.408;2023-04-01T04:54:00;5.1;;;3.7;;
23252;SDS011;11795;47.054;15.408;2023-04-01T04:56:00;5.1;;;3.7;;
23252;SDS011;11795;47.054;15.408;2023-04-01T04:58:00;4.4;;;4.0;;
23252;SDS011;11795;47.054;15.408;2023-04-01T05:00:00;4.4;;;4.0;;
23252;SDS011;11795;47.054;15.408;2023-04-01T05:02:00;5.2;;;4.4;;
23252;SDS011;11795;47.054;15.408;2023-04-01T05:04:00;5.2;;;4.4;;
23252;SDS011;11795;47.054;15.408;2023-04-01T05:06:00;5.2;;;4.4;;
23252;SDS011;11795;47.054;15.408;2023-04-01T05:08:00;4.9;;;4.1;;
23252;SDS011;11795;47.054;15.408;2023-04-01T05:10:00;4.9;;;4.1;;
23252;SDS011;11795;47.054;15.408;2023-04-01T05:12:00;5.4;;;4.3;;
23252;SDS011;11795;47.054;15.408;2023-04-01T05:14:00;5.4;;;4.3;;
23252;SDS011;11795;47.054;15.408;2023-04-01T05:16:00;5.4;;;4.3;;
23252;SDS011;11795;47.054;15.408;2023-04-01T05:18:00;6.0;;;4.6;;
23252;SDS011;11795;47.054;15.408;2023-04-01T05:20:00;6.0;;;4.6;;
23252;SDS011;11795;47.054;15.408;2023-04-01T05:22:00;6.3;;;4.4;;
23252;SDS011;11795;47.054;15.408;2023-04-01T05:24:00;6.3;;;4.4;;
23252;SDS011;11795;47.054;15.408;2023-04-01T05:26:02;6.3;;;4.4;;
23252;SDS011;11795;47.054;15.408;2023-04-01T05:28:00;5.2;;;4.1;;
23252;SDS011;11795;47.054;15.408;2023-04-01T05:30:00;5.2;;;4.1;;
23252;SDS011;11795;47.054;15.408;2023-04-01T05:32:00;4.7;;;3.6;;
23252;SDS011;11795;47.054;15.408;2023-04-01T05:34:00;4.7;;;3.6;;
23252;SDS011;11795;47.054;15.408;2023-04-01T05:36:08;4.7;;;3.6;;
23252;SDS011;11795;47.054;15.408;2023-04-01T05:38:00;5.0;;;3.8;;
23252;SDS011;11795;47.054;15.408;2023-04-01T05:40:00;5.0;;;3.8;;
23252;SDS011;11795;47.054;15.408;2023-04-01T05:42:00;3.2;;;2.9;;
23252;SDS011;11795;47.054;15.408;2023-04-01T05:44:00;3.2;;;2.9;;
23252;SDS011;11795;47.054;15.408;2023-04-01T05:46:00;3.2;;;2.9;;
23252;SDS011;11795;47.054;15.408;2023-04-01T05:48:00;5.4;;;3.6;;
23252;SDS011;11795;47.054;15.408;2023-04-01T05:50:00;5.4;;;3.6;;
23252;SDS011;11795;47.054;15.408;2023-04-01T05:52:00;6.7;;;5.0;;
23252;SDS011;11795;47.054;15.408;2023-04-01T05:54:00;6.7;;;5.0;;
23252;SDS011;11795;47.054;15.408;2023-04-01T05:56:02;6.7;;;5.0;;
23252;SDS011;11795;47.054;15.408;2023-04-01T05:58:00;3.8;;;3.4;;
23252;SDS011;11795;47.054;15.408;2023-04-01T06:00:00;3.8;;;3.4;;
23252;SDS011;11795;47.054;15.408;2023-04-01T06:02:00;3.7;;;3.0;;
23252;SDS011;11795;47.054;15.408;2023-04-01T06:04:00;3.7;;;3.0;;
23252;SDS011;11795;47.054;15.408;2023-04-01T06:06:01;3.7;;;3.0;;
23252;SDS011;11795;47.054;15.408;2023-04-01T06:08:02;4.2;;;3.1;;
23252;SDS011;11795;47.054;15.408;2023-04-01T06:10:00;4.2;;;3.1;;
23252;SDS011;11795;47.054;15.408;2023-04-01T06:12:06;3.2;;;2.9;;
23252;SDS011;11795;47.054;15.408;2023-04-01T06:14:07;3.2;;;2.9;;
23252;SDS011;11795;47.054;15.408;2023-04-01T06:16:02;3.2;;;2.9;;
23252;SDS011;11795;47.054;15.408;2023-04-01T06:20:02;3.7;;;3.0;;
23252;SDS011;11795;47.054;15.408;2023-04-01T06:22:04;3.6;;;3.0;;
23252;SDS011;11795;47.054;15.408;2023-04-01T06:24:03;3.6;;;3.0;;
23252;SDS011;11795;47.054;15.408;2023-04-01T06:28:05;2.6;;;2.4;;
23252;SDS011;11795;47.054;15.408;2023-04-01T06:30:02;2.6;;;2.4;;
23252;SDS011;11795;47.054;15.408;2023-04-01T06:32:04;3.7;;;2.6;;
23252;SDS011;11795;47.054;15.408;2023-04-01T06:34:05;3.7;;;2.6;;
23252;SDS011;11795;47.054;15.408;2023-04-01T06:36:04;3.7;;;2.6;;
23252;SDS011;11795;47.054;15.408;2023-04-01T06:38:04;4.0;;;2.9;;
23252;SDS011;11795;47.054;15.408;2023-04-01T06:40:06;4.0;;;2.9;;
23252;SDS011;11795;47.054;15.408;2023-04-01T06:42:05;3.5;;;3.1;;
23252;SDS011;11795;47.054;15.408;2023-04-01T06:44:05;3.5;;;3.1;;
23252;SDS011;11795;47.054;15.408;2023-04-01T06:46:01;3.5;;;3.1;;
23252;SDS011;11795;47.054;15.408;2023-04-01T06:48:03;5.1;;;2.8;;
23252;SDS011;11795;47.054;15.408;2023-04-01T06:50:01;5.1;;;2.8;;
23252;SDS011;11795;47.054;15.408;2023-04-01T06:52:02;5.2;;;3.3;;
23252;SDS011;11795;47.054;15.408;2023-04-01T06:54:02;5.2;;;3.3;;
23252;SDS011;11795;47.054;15.408;2023-04-01T06:56:02;5.2;;;3.3;;
23252;SDS011;11795;47.054;15.408;2023-04-01T06:58:00;7.9;;;4.0;;
23252;SDS011;11795;47.054;15.408;2023-04-01T07:00:01;7.9;;;4.0;;
23252;SDS011;11795;47.054;15.408;2023-04-01T07:02:01;6.2;;;4.3;;
23252;SDS011;11795;47.054;15.408;2023-04-01T07:04:01;6.2;;;4.3;;
23252;SDS011;11795;47.054;15.408;2023-04-01T07:06:02;6.2;;;4.3;;
23252;SDS011;11795;47.054;15.408;2023-04-01T07:08:01;4.3;;;3.4;;
23252;SDS011;11795;47.054;15.408;2023-04-01T07:10:02;4.3;;;3.4;;
23252;SDS011;11795;47.054;15.408;2023-04-01T07:12:01;5.7;;;3.4;;
23252;SDS011;11795;47.054;15.408;2023-04-01T07:14:01;5.7;;;3.4;;
23252;SDS011;11795;47.054;15.408;2023-04-01T07:16:04;5.7;;;3.4;;
23252;SDS011;11795;47.054;15.408;2023-04-01T07:18:02;3.7;;;3.1;;
23252;SDS011;11795;47.054;15.408;2023-04-01T07:20:02;3.7;;;3.1;;
23252;SDS011;11795;47.054;15.408;2023-04-01T07:22:01;5.3;;;3.2;;
23252;SDS011;11795;47.054;15.408;2023-04-01T07:24:02;5.3;;;3.2;;
23252;SDS011;11795;47.054;15.408;2023-04-01T07:26:01;5.3;;;3.2;;
23252;SDS011;11795;47.054;15.408;2023-04-01T07:28:02;4.2;;;2.9;;
23252;SDS011;11795;47.054;15.408;2023-04-01T07:30:01;4.2;;;2.9;;
23252;SDS011;11795;47.054;15.408;2023-04-01T07:34:02;4.6;;;3.1;;
23252;SDS011;11795;47.054;15.408;2023-04-01T07:36:01;4.6;;;3.1;;
23252;SDS011;11795;47.054;15.408;2023-04-01T07:38:05;3.7;;;2.7;;
23252;SDS011;11795;47.054;15.408;2023-04-01T07:40:04;3.7;;;2.7;;
23252;SDS011;11795;47.054;15.408;2023-04-01T07:42:02;4.1;;;2.8;;
23252;SDS011;11795;47.054;15.408;2023-04-01T07:44:03;4.1;;;2.8;;
23252;SDS011;11795;47.054;15.408;2023-04-01T07:46:03;4.1;;;2.8;;
23252;SDS011;11795;47.054;15.408;2023-04-01T07:48:04;5.5;;;3.5;;
23252;SDS011;11795;47.054;15.408;2023-04-01T07:50:02;5.5;;;3.5;;
23252;SDS011;11795;47.054;15.408;2023-04-01T07:52:01;4.9;;;3.2;;
23252;SDS011;11795;47.054;15.408;2023-04-01T07:54:02;4.9;;;3.2;;
23252;SDS011;11795;47.054;15.408;2023-04-01T07:56:02;4.9;;;3.2;;
23252;SDS011;11795;47.054;15.408;2023-04-01T07:58:02;4.7;;;3.8;;
23252;SDS011;11795;47.054;15.408;2023-04-01T08:00:02;4.7;;;3.8;;
23252;SDS011;11795;47.054;15.408;2023-04-01T08:02:02;4.8;;;3.4;;
23252;SDS011;11795;47.054;15.408;2023-04-01T08:04:05;4.8;;;3.4;;
23252;SDS011;11795;47.054;15.408;2023-04-01T08:06:02;4.8;;;3.4;;
23252;SDS011;11795;47.054;15.408;2023-04-01T08:08:03;3.5;;;2.9;;
23252;SDS011;11795;47.054;15.408;2023-04-01T08:10:02;3.5;;;2.9;;
23252;SDS011;11795;47.054;15.408;2023-04-01T08:12:04;4.2;;;3.4;;
23252;SDS011;11795;47.054;15.408;2023-04-01T08:14:02;4.2;;;3.4;;
23252;SDS011;11795;47.054;15.408;2023-04-01T08:16:03;4.2;;;3.4;;
23252;SDS011;11795;47.054;15.408;2023-04-01T08:18:03;3.7;;;2.9;;
23252;SDS011;11795;47.054;15.408;2023-04-01T08:20:05;3.7;;;2.9;;
23252;SDS011;11795;47.054;15.408;2023-04-01T08:22:07;4.7;;;3.3;;
23252;SDS011;11795;47.054;15.408;2023-04-01T08:24:04;4.7;;;3.3;;
23252;SDS011;11795;47.054;15.408;2023-04-01T08:26:01;4.7;;;3.3;;
23252;SDS011;11795;47.054;15.408;2023-04-01T08:28:02;4.3;;;2.9;;
23252;SDS011;11795;47.054;15.408;2023-04-01T08:30:03;4.3;;;2.9;;
23252;SDS011;11795;47.054;15.408;2023-04-01T08:32:01;3.0;;;2.7;;
23252;SDS011;11795;47.054;15.408;2023-04-01T08:34:01;3.0;;;2.7;;
23252;SDS011;11795;47.054;15.408;2023-04-01T08:36:02;3.0;;;2.7;;
23252;SDS011;11795;47.054;15.408;2023-04-01T08:38:01;3.3;;;2.6;;
23252;SDS011;11795;47.054;15.408;2023-04-01T08:40:01;3.3;;;2.6;;
23252;SDS011;11795;47.054;15.408;2023-04-01T08:42:06;4.2;;;2.6;;
23252;SDS011;11795;47.054;15.408;2023-04-01T08:44:05;4.2;;;2.6;;
23252;SDS011;11795;47.054;15.408;2023-04-01T08:46:05;4.2;;;2.6;;
23252;SDS011;11795;47.054;15.408;2023-04-01T08:48:07;3.5;;;2.9;;
23252;SDS011;11795;47.054;15.408;2023-04-01T08:50:06;3.5;;;2.9;;
23252;SDS011;11795;47.054;15.408;2023-04-01T08:54:06;2.6;;;2.4;;
23252;SDS011;11795;47.054;15.408;2023-04-01T08:56:03;2.6;;;2.4;;
23252;SDS011;11795;47.054;15.408;2023-04-01T08:58:08;2.9;;;2.3;;
23252;SDS011;11795;47.054;15.408;2023-04-01T09:00:04;2.9;;;2.3;;
23252;SDS011;11795;47.054;15.408;2023-04-01T09:04:06;3.4;;;2.3;;
23252;SDS011;11795;47.054;15.408;2023-04-01T09:08:02;2.4;;;1.8;;
23252;SDS011;11795;47.054;15.408;2023-04-01T09:10:08;2.4;;;1.8;;
23252;SDS011;11795;47.054;15.408;2023-04-01T09:12:08;2.8;;;1.8;;
23252;SDS011;11795;47.054;15.408;2023-04-01T09:16:03;2.8;;;1.8;;
23252;SDS011;11795;47.054;15.408;2023-04-01T09:20:06;3.6;;;1.8;;
23252;SDS011;11795;47.054;15.408;2023-04-01T09:22:10;3.6;;;1.8;;
23252;SDS011;11795;47.054;15.408;2023-04-01T09:24:07;2.6;;;1.7;;
23252;SDS011;11795;47.054;15.408;2023-04-01T09:26:06;2.6;;;1.7;;
23252;SDS011;11795;47.054;15.408;2023-04-01T09:28:02;20.2;;;3.2;;
23252;SDS011;11795;47.054;15.408;2023-04-01T09:30:07;20.2;;;3.2;;
23252;SDS011;11795;47.054;15.408;2023-04-01T09:32:04;20.2;;;3.2;;
23252;SDS011;11795;47.054;15.408;2023-04-01T09:34:05;1.9;;;1.4;;
23252;SDS011;11795;47.054;15.408;2023-04-01T09:36:03;1.9;;;1.4;;
23252;SDS011;11795;47.054;15.408;2023-04-01T09:38:04;1.9;;;1.4;;
23252;SDS011;11795;47.054;15.408;2023-04-01T09:40:08;1.9;;;1.4;;
23252;SDS011;11795;47.054;15.408;2023-04-01T09:42:06;1.9;;;1.4;;
23252;SDS011;11795;47.054;15.408;2023-04-01T09:44:02;2.3;;;1.0;;
23252;SDS011;11795;47.054;15.408;2023-04-01T09:46:11;2.3;;;1.0;;
23252;SDS011;11795;47.054;15.408;2023-04-01T09:48:03;2.1;;;1.5;;
23252;SDS011;11795;47.054;15.408;2023-04-01T09:50:06;2.1;;;1.5;;
23252;SDS011;11795;47.054;15.408;2023-04-01T09:52:04;2.1;;;1.5;;
23252;SDS011;11795;47.054;15.408;2023-04-01T09:54:04;2.2;;;1.7;;
23252;SDS011;11795;47.054;15.408;2023-04-01T09:56:05;2.2;;;1.7;;
23252;SDS011;11795;47.054;15.408;2023-04-01T09:58:08;1.6;;;1.4;;
23252;SDS011;11795;47.054;15.408;2023-04-01T10:02:06;1.6;;;1.4;;
23252;SDS011;11795;47.054;15.408;2023-04-01T10:08:08;0.6;;;0.5;;
23252;SDS011;11795;47.054;15.408;2023-04-01T10:10:07;0.6;;;0.5;;
23252;SDS011;11795;47.054;15.408;2023-04-01T10:12:06;0.6;;;0.5;;
23252;SDS011;11795;47.054;15.408;2023-04-01T10:14:06;0.4;;;0.3;;
23252;SDS011;11795;47.054;15.408;2023-04-01T10:20:08;0.4;;;0.1;;
23252;SDS011;11795;47.054;15.408;2023-04-01T10:24:09;0.2;;;0.0;;
23252;SDS011;11795;47.054;15.408;2023-04-01T10:28:04;0.1;;;0.1;;
23252;SDS011;11795;47.054;15.408;2023-04-01T10:36:05;0.2;;;0.1;;
23252;SDS011;11795;47.054;15.408;2023-04-01T10:38:06;0.2;;;0.1;;
23252;SDS011;11795;47.054;15.408;2023-04-01T10:40:06;0.2;;;0.1;;
23252;SDS011;11795;47.054;15.408;2023-04-01T10:42:06;0.2;;;0.1;;
23252;SDS011;11795;47.054;15.408;2023-04-01T10:48:07;0.4;;;0.2;;
23252;SDS011;11795;47.054;15.408;2023-04-01T10:50:07;0.4;;;0.2;;
23252;SDS011;11795;47.054;15.408;2023-04-01T10:54:09;3.8;;;0.4;;
23252;SDS011;11795;47.054;15.408;2023-04-01T10:58:07;1.6;;;0.1;;
23252;SDS011;11795;47.054;15.408;2023-04-01T11:00:06;1.6;;;0.1;;
23252;SDS011;11795;47.054;15.408;2023-04-01T11:02:07;1.6;;;0.1;;
23252;SDS011;11795;47.054;15.408;2023-04-01T11:04:08;3.4;;;0.6;;
23252;SDS011;11795;47.054;15.408;2023-04-01T11:06:07;3.4;;;0.6;;
23252;SDS011;11795;47.054;15.408;2023-04-01T11:16:05;0.7;;;0.1;;
23252;SDS011;11795;47.054;15.408;2023-04-01T11:18:09;0.5;;;0.1;;
23252;SDS011;11795;47.054;15.408;2023-04-01T11:20:07;0.5;;;0.1;;
23252;SDS011;11795;47.054;15.408;2023-04-01T11:22:08;0.5;;;0.1;;
23252;SDS011;11795;47.054;15.408;2023-04-01T11:24:04;0.1;;;0.1;;
23252;SDS011;11795;47.054;15.408;2023-04-01T11:26:02;0.1;;;0.1;;
23252;SDS011;11795;47.054;15.408;2023-04-01T11:28:06;0.6;;;0.1;;
23252;SDS011;11795;47.054;15.408;2023-04-01T11:30:04;0.6;;;0.1;;
23252;SDS011;11795;47.054;15.408;2023-04-01T11:32:02;0.6;;;0.1;;
23252;SDS011;11795;47.054;15.408;2023-04-01T11:34:02;0.3;;;0.1;;
23252;SDS011;11795;47.054;15.408;2023-04-01T11:36:04;0.3;;;0.1;;
23252;SDS011;11795;47.054;15.408;2023-04-01T11:38:02;0.4;;;0.1;;
23252;SDS011;11795;47.054;15.408;2023-04-01T11:40:04;0.4;;;0.1;;
23252;SDS011;11795;47.054;15.408;2023-04-01T11:42:03;0.4;;;0.1;;
23252;SDS011;11795;47.054;15.408;2023-04-01T11:44:07;0.2;;;0.1;;
23252;SDS011;11795;47.054;15.408;2023-04-01T11:46:02;0.2;;;0.1;;
23252;SDS011;11795;47.054;15.408;2023-04-01T11:50:03;0.5;;;0.1;;
23252;SDS011;11795;47.054;15.408;2023-04-01T11:52:04;0.5;;;0.1;;
23252;SDS011;11795;47.054;15.408;2023-04-01T11:54:03;0.8;;;0.0;;
23252;SDS011;11795;47.054;15.408;2023-04-01T11:56:06;0.8;;;0.0;;
23252;SDS011;11795;47.054;15.408;2023-04-01T11:58:06;0.5;;;0.1;;
23252;SDS011;11795;47.054;15.408;2023-04-01T12:00:02;0.5;;;0.1;;
23252;SDS011;11795;47.054;15.408;2023-04-01T12:02:03;0.5;;;0.1;;
23252;SDS011;11795;47.054;15.408;2023-04-01T12:04:06;0.3;;;0.0;;
23252;SDS011;11795;47.054;15.408;2023-04-01T12:06:02;0.3;;;0.0;;
23252;SDS011;11795;47.054;15.408;2023-04-01T12:08:02;0.3;;;0.1;;
23252;SDS011;11795;47.054;15.408;2023-04-01T12:10:03;0.3;;;0.1;;
23252;SDS011;11795;47.054;15.408;2023-04-01T12:12:03;0.3;;;0.1;;
23252;SDS011;11795;47.054;15.408;2023-04-01T12:14:03;0.2;;;0.1;;
23252;SDS011;11795;47.054;15.408;2023-04-01T12:16:04;0.2;;;0.1;;
23252;SDS011;11795;47.054;15.408;2023-04-01T12:18:02;0.2;;;0.1;;
23252;SDS011;11795;47.054;15.408;2023-04-01T12:20:02;0.2;;;0.1;;
23252;SDS011;11795;47.054;15.408;2023-04-01T12:22:06;0.2;;;0.1;;
23252;SDS011;11795;47.054;15.408;2023-04-01T12:24:05;0.2;;;0.1;;
23252;SDS011;11795;47.054;15.408;2023-04-01T12:26:03;0.2;;;0.1;;
23252;SDS011;11795;47.054;15.408;2023-04-01T12:28:03;0.2;;;0.0;;
23252;SDS011;11795;47.054;15.408;2023-04-01T12:30:04;0.2;;;0.0;;
23252;SDS011;11795;47.054;15.408;2023-04-01T12:32:01;0.2;;;0.0;;
23252;SDS011;11795;47.054;15.408;2023-04-01T12:34:12;0.3;;;0.1;;
23252;SDS011;11795;47.054;15.408;2023-04-01T12:36:02;0.3;;;0.1;;
23252;SDS011;11795;47.054;15.408;2023-04-01T12:38:07;0.2;;;0.1;;
23252;SDS011;11795;47.054;15.408;2023-04-01T12:40:02;0.2;;;0.1;;
23252;SDS011;11795;47.054;15.408;2023-04-01T12:42:04;0.2;;;0.1;;
23252;SDS011;11795;47.054;15.408;2023-04-01T12:46:03;0.2;;;0.0;;
23252;SDS011;11795;47.054;15.408;2023-04-01T12:48:04;0.1;;;0.0;;
23252;SDS011;11795;47.054;15.408;2023-04-01T12:50:07;0.1;;;0.0;;
23252;SDS011;11795;47.054;15.408;2023-04-01T12:52:04;0.1;;;0.0;;
23252;SDS011;11795;47.054;15.408;2023-04-01T12:56:01;0.2;;;0.0;;
23252;SDS011;11795;47.054;15.408;2023-04-01T13:00:04;0.1;;;0.0;;
23252;SDS011;11795;47.054;15.408;2023-04-01T13:02:01;0.1;;;0.0;;
23252;SDS011;11795;47.054;15.408;2023-04-01T13:04:05;0.1;;;0.0;;
23252;SDS011;11795;47.054;15.408;2023-04-01T13:06:09;0.1;;;0.0;;
23252;SDS011;11795;47.054;15.408;2023-04-01T13:08:04;0.2;;;0.1;;
23252;SDS011;11795;47.054;15.408;2023-04-01T13:10:02;0.2;;;0.1;;
23252;SDS011;11795;47.054;15.408;2023-04-01T13:12:05;0.2;;;0.1;;
23252;SDS011;11795;47.054;15.408;2023-04-01T13:16:01;0.2;;;0.1;;
23252;SDS011;11795;47.054;15.408;2023-04-01T13:18:03;0.6;;;0.1;;
23252;SDS011;11795;47.054;15.408;2023-04-01T13:20:02;0.6;;;0.1;;